createdAt,value
2023-06-21T00:00:26.602Z,2.78
2023-06-21T00:02:55.282Z,3.33
2023-06-21T00:05:24.992Z,3.25
2023-06-21T00:07:55.141Z,2.65
2023-06-21T00:10:24.488Z,3.50
2023-06-21T00:12:53.089Z,2.58
2023-06-21T00:15:21.126Z,3.22
2023-06-21T00:17:49.983Z,2.65
2023-06-21T00:20:17.815Z,2.85
2023-06-21T00:22:47.298Z,2.60
2023-06-21T00:25:16.667Z,2.38
2023-06-21T00:27:44.469Z,2.13
2023-06-21T00:30:12.631Z,1.83
2023-06-21T00:32:40.796Z,2.05
2023-06-21T00:35:09.721Z,2.08
2023-06-21T00:37:38.996Z,2.10
2023-06-21T00:40:13.217Z,2.55
2023-06-21T00:42:41.427Z,2.53
2023-06-21T00:45:11.155Z,2.55
2023-06-21T00:47:41.226Z,2.42
2023-06-21T00:50:10.108Z,2.60
2023-06-21T00:52:39.272Z,2.50
2023-06-21T00:55:09.577Z,2.28
2023-06-21T00:57:39.106Z,2.70
2023-06-21T01:00:14.010Z,2.70
2023-06-21T01:02:41.872Z,2.67
2023-06-21T01:05:10.217Z,2.70
2023-06-21T01:07:46.325Z,2.58
2023-06-21T01:10:22.166Z,1.95
2023-06-21T01:13:00.058Z,2.35
2023-06-21T01:15:29.374Z,2.95
2023-06-21T01:17:59.894Z,2.42
2023-06-21T01:20:31.553Z,2.22
2023-06-21T01:23:10.530Z,2.40
2023-06-21T01:25:47.855Z,2.40
2023-06-21T01:28:33.252Z,2.50
2023-06-21T01:31:03.387Z,2.88
2023-06-21T01:33:32.701Z,2.33
2023-06-21T01:36:03.284Z,2.63
2023-06-21T01:38:32.131Z,2.22
2023-06-21T01:40:59.977Z,2.55
2023-06-21T01:43:27.798Z,2.65
2023-06-21T01:45:55.824Z,2.38
2023-06-21T01:48:25.060Z,2.00
2023-06-21T01:50:53.884Z,2.53
2023-06-21T01:53:35.930Z,2.45
2023-06-21T01:56:06.177Z,2.42
2023-06-21T01:58:34.959Z,2.65
2023-06-21T02:01:04.737Z,2.72
2023-06-21T02:03:34.858Z,2.47
2023-06-21T02:06:06.076Z,2.67
2023-06-21T02:08:35.081Z,2.35
2023-06-21T02:11:03.394Z,2.25
2023-06-21T02:13:32.402Z,2.63
2023-06-21T02:16:00.190Z,2.58
2023-06-21T02:18:28.093Z,2.47
2023-06-21T02:20:58.794Z,2.28
2023-06-21T02:23:26.660Z,2.47
2023-06-21T02:25:54.348Z,2.15
2023-06-21T02:28:22.343Z,2.97
2023-06-21T02:30:50.887Z,2.63
2023-06-21T02:33:19.113Z,2.95
2023-06-21T02:35:46.879Z,3.13
2023-06-21T02:38:16.727Z,2.42
2023-06-21T02:40:44.447Z,3.15
2023-06-21T02:43:12.483Z,2.90
2023-06-21T02:45:40.451Z,3.15
2023-06-21T02:48:08.574Z,3.15
2023-06-21T02:50:37.424Z,3.08
2023-06-21T02:53:05.388Z,3.28
2023-06-21T02:55:34.605Z,3.28
2023-06-21T02:58:02.621Z,4.03
2023-06-21T03:00:32.510Z,3.90
2023-06-21T03:03:03.774Z,3.33
2023-06-21T03:05:34.960Z,4.97
2023-06-21T03:08:05.111Z,6.43
2023-06-21T03:10:34.752Z,5.43
2023-06-21T03:13:05.531Z,4.97
2023-06-21T03:15:33.336Z,8.27
2023-06-21T03:18:01.228Z,8.68
2023-06-21T03:20:29.902Z,8.43
2023-06-21T03:23:01.613Z,10.60
2023-06-21T03:25:29.844Z,10.45
2023-06-21T03:28:00.410Z,11.10
2023-06-21T03:30:29.655Z,10.55
2023-06-21T03:32:57.700Z,9.40
2023-06-21T03:35:25.980Z,10.65
2023-06-21T03:37:53.787Z,9.60
2023-06-21T03:40:27.231Z,9.80
2023-06-21T03:42:55.773Z,9.10
2023-06-21T03:45:25.250Z,7.78
2023-06-21T03:47:57.439Z,8.52
2023-06-21T03:50:25.676Z,8.05
2023-06-21T03:52:53.893Z,8.55
2023-06-21T03:55:21.716Z,8.55
2023-06-21T03:57:50.150Z,7.63
2023-06-21T04:00:19.352Z,8.15
2023-06-21T04:02:53.963Z,7.82
2023-06-21T04:05:22.465Z,7.13
2023-06-21T04:07:50.244Z,8.75
2023-06-21T04:10:20.233Z,8.27
2023-06-21T04:12:47.937Z,8.40
2023-06-21T04:15:17.192Z,7.95
2023-06-21T04:17:45.179Z,8.50
2023-06-21T04:20:16.570Z,8.40
2023-06-21T04:22:46.295Z,8.55
2023-06-21T04:25:14.058Z,8.07
2023-06-21T04:27:41.924Z,8.15
2023-06-21T04:30:11.594Z,8.40
2023-06-21T04:32:45.946Z,7.82
2023-06-21T04:35:16.519Z,7.70
2023-06-21T04:37:46.656Z,7.65
2023-06-21T04:40:17.726Z,7.60
2023-06-21T04:42:47.298Z,7.60
2023-06-21T04:45:16.392Z,7.07
2023-06-21T04:47:48.029Z,8.00
2023-06-21T04:52:50.065Z,6.07
2023-06-21T04:55:19.493Z,7.05
2023-06-21T04:57:49.012Z,6.70
2023-06-21T05:00:18.052Z,6.25
2023-06-21T05:02:46.122Z,6.15
2023-06-21T05:05:14.017Z,7.20
2023-06-21T05:07:43.556Z,7.03
2023-06-21T05:10:12.270Z,7.25
2023-06-21T05:12:39.995Z,8.10
2023-06-21T05:15:08.524Z,8.27
2023-06-21T05:17:36.765Z,8.23
2023-06-21T05:20:06.884Z,8.98
2023-06-21T05:22:34.716Z,8.00
2023-06-21T05:25:05.106Z,8.25
2023-06-21T05:27:33.793Z,9.63
2023-06-21T05:30:01.583Z,9.73
2023-06-21T05:32:30.716Z,10.10
2023-06-21T05:34:58.943Z,10.57
2023-06-21T05:37:26.867Z,11.13
2023-06-21T05:39:54.566Z,11.38
2023-06-21T05:42:23.867Z,13.00
2023-06-21T05:44:51.649Z,14.05
2023-06-21T05:47:19.432Z,13.70
2023-06-21T05:49:47.267Z,14.43
2023-06-21T05:52:15.205Z,16.13
2023-06-21T05:54:44.467Z,15.85
2023-06-21T05:57:12.306Z,15.90
2023-06-21T05:59:42.554Z,17.73
2023-06-21T06:02:10.747Z,17.02
2023-06-21T06:04:39.334Z,17.23
2023-06-21T06:07:07.451Z,16.50
2023-06-21T06:09:35.235Z,18.08
2023-06-21T06:12:03.427Z,18.20
2023-06-21T06:14:31.139Z,17.42
2023-06-21T06:17:00.195Z,18.92
2023-06-21T06:19:27.882Z,20.38
2023-06-21T06:21:56.056Z,18.35
2023-06-21T06:24:23.811Z,18.13
2023-06-21T06:26:51.950Z,20.23
2023-06-21T06:29:20.331Z,18.38
2023-06-21T06:31:48.391Z,19.10
2023-06-21T06:34:18.410Z,18.60
2023-06-21T06:36:48.999Z,19.20
2023-06-21T06:39:24.182Z,18.30
2023-06-21T06:41:51.911Z,19.30
2023-06-21T06:44:19.672Z,19.02
2023-06-21T06:46:47.467Z,18.20
2023-06-21T06:49:15.195Z,20.63
2023-06-21T06:51:46.654Z,20.45
2023-06-21T06:54:14.354Z,20.23
2023-06-21T06:56:42.697Z,20.08
2023-06-21T06:59:10.456Z,18.90
2023-06-21T07:01:39.262Z,21.40
2023-06-21T07:04:08.115Z,20.23
2023-06-21T07:06:35.991Z,17.90
2023-06-21T07:09:05.645Z,18.65
2023-06-21T07:11:33.312Z,19.55
2023-06-21T07:14:01.097Z,18.88
2023-06-21T07:16:32.399Z,20.73
2023-06-21T07:19:00.147Z,19.65
2023-06-21T07:21:28.406Z,21.50
2023-06-21T07:23:56.144Z,22.05
2023-06-21T07:26:25.722Z,21.02
2023-06-21T07:28:53.610Z,23.38
2023-06-21T07:31:21.382Z,22.15
2023-06-21T07:33:50.288Z,20.83
2023-06-21T07:36:17.990Z,21.05
2023-06-21T07:38:47.563Z,21.05
2023-06-21T07:41:15.628Z,20.30
2023-06-21T07:43:44.763Z,18.98
2023-06-21T07:46:15.693Z,19.58
2023-06-21T07:48:44.398Z,19.60
2023-06-21T07:51:12.076Z,19.35
2023-06-21T07:53:40.058Z,17.90
2023-06-21T07:56:07.926Z,17.27
2023-06-21T07:58:35.852Z,17.88
2023-06-21T08:01:05.463Z,17.45
2023-06-21T08:03:33.241Z,18.88
2023-06-21T08:06:01.041Z,18.63
2023-06-21T08:08:28.759Z,20.02
2023-06-21T08:10:57.387Z,19.10
2023-06-21T08:13:25.212Z,20.17
2023-06-21T08:15:53.180Z,20.60
2023-06-21T08:18:22.236Z,21.35
2023-06-21T08:20:50.304Z,19.58
2023-06-21T08:23:18.083Z,20.05
2023-06-21T08:25:46.666Z,19.15
2023-06-21T08:28:14.524Z,19.55
2023-06-21T08:30:42.329Z,19.25
2023-06-21T08:33:13.633Z,20.17
2023-06-21T08:35:43.567Z,19.35
2023-06-21T08:38:26.730Z,19.50
2023-06-21T08:40:59.927Z,21.17
2023-06-21T08:43:29.082Z,21.60
2023-06-21T08:45:57.676Z,21.63
2023-06-21T08:48:26.415Z,21.40
2023-06-21T08:50:56.325Z,20.20
2023-06-21T08:53:34.135Z,20.23
2023-06-21T08:56:02.635Z,18.95
2023-06-21T08:58:33.506Z,18.63
2023-06-21T09:01:05.117Z,17.15
2023-06-21T09:03:37.382Z,16.35
2023-06-21T09:06:12.079Z,16.30
2023-06-21T09:08:41.616Z,14.95
2023-06-21T09:11:10.214Z,14.82
2023-06-21T09:13:39.045Z,14.63
2023-06-21T09:16:07.336Z,13.35
2023-06-21T09:18:39.413Z,12.73
2023-06-21T09:21:10.111Z,11.35
2023-06-21T09:23:39.216Z,10.10
2023-06-21T09:26:07.265Z,10.05
2023-06-21T09:28:35.033Z,10.05
2023-06-21T09:31:02.911Z,10.02
2023-06-21T09:33:31.411Z,10.27
2023-06-21T09:35:59.682Z,8.75
2023-06-21T09:38:34.181Z,9.98
2023-06-21T09:41:02.940Z,11.40
2023-06-21T09:43:31.472Z,10.77
2023-06-21T09:46:04.401Z,11.70
2023-06-21T09:48:36.309Z,11.75
2023-06-21T09:51:04.974Z,12.55
2023-06-21T09:53:34.432Z,11.30
2023-06-21T09:56:03.002Z,9.48
2023-06-21T09:58:34.223Z,9.57
2023-06-21T10:01:02.128Z,8.23
2023-06-21T10:03:29.981Z,9.02
2023-06-21T10:05:58.874Z,7.55
2023-06-21T10:08:27.924Z,8.52
2023-06-21T10:10:57.321Z,8.43
2023-06-21T10:13:28.822Z,9.30
2023-06-21T10:15:57.468Z,9.57
2023-06-21T10:18:25.494Z,8.90
2023-06-21T10:20:55.996Z,8.98
2023-06-21T10:23:25.161Z,7.97
2023-06-21T10:25:54.924Z,8.00
2023-06-21T10:28:25.243Z,7.50
2023-06-21T10:30:57.726Z,8.15
2023-06-21T10:33:28.047Z,7.60
2023-06-21T10:35:56.469Z,8.45
2023-06-21T10:38:30.713Z,8.40
2023-06-21T10:40:58.810Z,8.38
2023-06-21T10:43:29.543Z,9.15
2023-06-21T10:45:58.479Z,8.18
2023-06-21T10:48:27.611Z,8.48
2023-06-21T10:50:57.449Z,7.90
2023-06-21T10:53:25.360Z,8.07
2023-06-21T10:55:53.442Z,8.40
2023-06-21T10:58:21.724Z,9.38
2023-06-21T11:00:52.541Z,8.95
2023-06-21T11:03:26.867Z,9.35
2023-06-21T11:05:56.299Z,9.43
2023-06-21T11:08:32.460Z,8.73
2023-06-21T11:11:00.462Z,8.40
2023-06-21T11:13:36.174Z,6.95
2023-06-21T11:16:15.772Z,6.25
2023-06-21T11:18:44.785Z,6.47
2023-06-21T11:21:12.559Z,7.07
2023-06-21T11:23:50.875Z,6.03
2023-06-21T11:26:19.961Z,6.70
2023-06-21T11:28:49.071Z,5.80
2023-06-21T11:31:19.788Z,6.03
2023-06-21T11:33:53.640Z,5.10
2023-06-21T11:36:26.380Z,5.30
2023-06-21T11:39:00.457Z,5.47
2023-06-21T11:41:59.012Z,6.00
2023-06-21T11:44:27.906Z,7.50
2023-06-21T11:47:15.954Z,6.60
2023-06-21T11:49:48.210Z,5.63
2023-06-21T11:52:16.545Z,5.18
2023-06-21T11:54:44.367Z,4.55
2023-06-21T11:57:12.153Z,4.60
2023-06-21T11:59:40.252Z,4.85
2023-06-21T12:02:18.058Z,5.32
2023-06-21T12:04:46.333Z,5.80
2023-06-21T12:07:14.293Z,4.72
2023-06-21T12:09:51.564Z,5.00
2023-06-21T12:12:21.553Z,4.80
2023-06-21T12:14:49.270Z,4.55
2023-06-21T12:17:20.202Z,4.90
2023-06-21T12:19:48.016Z,4.53
2023-06-21T12:22:16.158Z,4.63
2023-06-21T12:24:44.460Z,4.15
2023-06-21T12:27:15.168Z,3.42
2023-06-21T12:29:49.457Z,3.78
2023-06-21T12:32:19.773Z,3.05
2023-06-21T12:34:47.683Z,2.60
2023-06-21T12:37:22.486Z,2.35
2023-06-21T12:39:51.775Z,2.30
2023-06-21T12:42:20.910Z,2.08
2023-06-21T12:44:48.968Z,1.90
2023-06-21T12:47:18.338Z,2.10
2023-06-21T12:49:50.156Z,2.00
2023-06-21T12:52:26.535Z,1.85
2023-06-21T12:54:55.572Z,1.90
2023-06-21T12:57:28.166Z,2.03
2023-06-21T12:59:56.075Z,1.90
2023-06-21T13:02:27.783Z,2.40
2023-06-21T13:04:57.173Z,2.00
2023-06-21T13:07:25.045Z,1.83
2023-06-21T13:09:53.879Z,2.22
2023-06-21T13:12:21.586Z,2.10
2023-06-21T13:14:49.338Z,2.10
2023-06-21T13:17:17.246Z,2.30
2023-06-21T13:19:46.503Z,2.00
2023-06-21T13:22:14.276Z,2.10
2023-06-21T13:24:42.204Z,1.90
2023-06-21T13:27:10.558Z,2.03
2023-06-21T13:29:38.306Z,2.33
2023-06-21T13:32:06.515Z,2.25
2023-06-21T13:34:34.224Z,2.00
2023-06-21T13:37:03.782Z,2.10
2023-06-21T13:39:31.493Z,2.60
2023-06-21T13:41:59.224Z,2.42
2023-06-21T13:44:26.994Z,2.53
2023-06-21T13:46:54.873Z,2.65
2023-06-21T13:49:22.787Z,2.00
2023-06-21T13:51:50.549Z,2.10
2023-06-21T13:54:19.667Z,2.20
2023-06-21T13:56:47.367Z,2.38
2023-06-21T13:59:15.172Z,2.42
2023-06-21T14:01:43.401Z,2.10
2023-06-21T14:04:11.389Z,2.30
2023-06-21T14:06:39.402Z,2.20
2023-06-21T14:09:08.926Z,2.28
2023-06-21T14:11:37.944Z,2.15
2023-06-21T14:14:06.648Z,2.22
2023-06-21T14:16:34.685Z,2.40
2023-06-21T14:19:02.439Z,2.28
2023-06-21T14:21:30.234Z,2.35
2023-06-21T14:23:58.597Z,2.30
2023-06-21T14:26:26.319Z,2.13
2023-06-21T14:28:55.393Z,2.22
2023-06-21T14:31:23.349Z,2.30
2023-06-21T14:33:55.237Z,2.10
2023-06-21T14:36:23.117Z,2.03
2023-06-21T14:38:50.932Z,2.00
2023-06-21T14:41:19.026Z,2.28
2023-06-21T14:43:47.409Z,2.38
2023-06-21T14:46:16.600Z,2.33
2023-06-21T14:48:44.388Z,2.53
2023-06-21T14:51:14.116Z,2.20
2023-06-21T14:53:42.646Z,2.38
2023-06-21T14:56:10.615Z,2.22
2023-06-21T14:58:38.780Z,2.30
2023-06-21T15:01:06.885Z,2.30
2023-06-21T15:03:36.337Z,2.20
2023-06-21T15:06:06.990Z,2.20
2023-06-21T15:08:35.065Z,2.80
2023-06-21T15:11:02.866Z,2.90
2023-06-21T15:13:30.688Z,2.30
2023-06-21T15:15:58.854Z,2.35
2023-06-21T15:18:26.611Z,2.50
2023-06-21T15:20:55.866Z,2.60
2023-06-21T15:23:23.940Z,2.50
2023-06-21T15:25:51.693Z,2.45
2023-06-21T15:28:19.518Z,2.28
2023-06-21T15:30:47.481Z,2.22
2023-06-21T15:33:15.281Z,2.30
2023-06-21T15:35:43.072Z,2.10
2023-06-21T15:38:12.690Z,2.25
2023-06-21T15:40:40.462Z,2.30
2023-06-21T15:43:08.162Z,2.08
2023-06-21T15:45:35.876Z,2.30
2023-06-21T15:48:03.754Z,2.20
2023-06-21T15:50:31.613Z,2.30
2023-06-21T15:53:00.639Z,2.05
2023-06-21T15:55:30.764Z,2.22
2023-06-21T15:57:58.671Z,2.50
2023-06-21T16:00:26.399Z,2.20
2023-06-21T16:02:54.326Z,2.75
2023-06-21T16:05:22.247Z,2.40
2023-06-21T16:07:49.971Z,2.47
2023-06-21T16:10:17.844Z,2.75
2023-06-21T16:12:57.043Z,2.20
2023-06-21T16:15:26.170Z,2.50
2023-06-21T16:17:54.272Z,2.33
2023-06-21T16:20:22.088Z,2.47
2023-06-21T16:22:49.846Z,2.80
2023-06-21T16:25:17.955Z,2.55
2023-06-21T16:27:47.109Z,2.40
2023-06-21T16:30:15.540Z,2.15
2023-06-21T16:32:43.479Z,2.30
2023-06-21T16:35:11.317Z,2.40
2023-06-21T16:37:40.096Z,2.10
2023-06-21T16:40:10.243Z,2.15
2023-06-21T16:42:38.072Z,2.30
2023-06-21T16:45:08.157Z,2.42
2023-06-21T16:47:35.912Z,1.98
2023-06-21T16:50:03.706Z,2.30
2023-06-21T16:52:31.493Z,2.15
2023-06-21T16:54:59.337Z,2.53
2023-06-21T16:57:27.265Z,2.20
2023-06-21T16:59:55.044Z,2.13
2023-06-21T17:02:24.133Z,2.30
2023-06-21T17:04:52.720Z,2.20
2023-06-21T17:07:20.793Z,2.25
2023-06-21T17:09:48.546Z,2.00
2023-06-21T17:12:17.937Z,2.35
2023-06-21T17:14:46.736Z,2.25
2023-06-21T17:17:15.385Z,2.20
2023-06-21T17:19:44.609Z,2.20
2023-06-21T17:22:13.037Z,2.22
2023-06-21T17:24:42.512Z,2.20
2023-06-21T17:27:10.911Z,1.95
2023-06-21T17:29:38.640Z,2.03
2023-06-21T17:32:06.856Z,1.98
2023-06-21T17:34:34.607Z,2.30
2023-06-21T17:37:04.404Z,2.30
2023-06-21T17:39:32.496Z,2.17
2023-06-21T17:42:00.429Z,2.05
2023-06-21T17:44:28.635Z,2.15
2023-06-21T17:46:56.357Z,2.28
2023-06-21T17:49:24.549Z,2.08
2023-06-21T17:51:52.814Z,2.30
2023-06-21T17:54:21.944Z,2.70
2023-06-21T17:56:49.891Z,2.30
2023-06-21T17:59:18.135Z,2.40
2023-06-21T18:01:46.392Z,2.08
2023-06-21T18:04:15.010Z,2.08
2023-06-21T18:06:44.568Z,2.25
2023-06-21T18:09:12.406Z,2.65
2023-06-21T18:11:41.470Z,2.22
2023-06-21T18:14:09.560Z,2.33
2023-06-21T18:16:37.609Z,2.20
2023-06-21T18:19:05.929Z,2.00
2023-06-21T18:21:33.962Z,2.20
2023-06-21T18:24:08.851Z,2.25
2023-06-21T18:26:36.817Z,2.00
2023-06-21T18:29:06.505Z,2.20
2023-06-21T18:31:34.451Z,2.28
2023-06-21T18:34:02.622Z,2.38
2023-06-21T18:36:30.842Z,2.40
2023-06-21T18:38:59.594Z,2.20
2023-06-21T18:41:27.819Z,2.35
2023-06-21T18:43:55.567Z,2.00
2023-06-21T18:46:25.045Z,1.95
2023-06-21T18:48:54.062Z,2.40
2023-06-21T18:51:25.280Z,2.00
2023-06-21T18:53:53.435Z,2.40
2023-06-21T18:56:21.305Z,2.40
2023-06-21T18:58:55.798Z,2.20
2023-06-21T19:01:25.347Z,2.25
2023-06-21T19:03:57.297Z,2.40
2023-06-21T19:06:28.137Z,2.13
2023-06-21T19:08:55.901Z,2.45
2023-06-21T19:11:23.743Z,2.40
2023-06-21T19:13:51.728Z,2.30
2023-06-21T19:16:22.179Z,2.28
2023-06-21T19:18:53.146Z,2.40
2023-06-21T19:21:20.932Z,2.28
2023-06-21T19:23:48.958Z,2.30
2023-06-21T19:26:16.754Z,2.40
2023-06-21T19:28:44.723Z,2.42
2023-06-21T19:31:12.538Z,2.25
2023-06-21T19:33:40.680Z,2.38
2023-06-21T19:36:09.917Z,2.20
2023-06-21T19:38:37.974Z,2.28
2023-06-21T19:41:06.276Z,2.28
2023-06-21T19:43:34.410Z,2.22
2023-06-21T19:46:02.152Z,2.35
2023-06-21T19:48:29.885Z,2.17
2023-06-21T19:50:57.611Z,2.40
2023-06-21T19:53:26.701Z,2.33
2023-06-21T19:55:56.353Z,2.25
2023-06-21T19:58:24.644Z,2.45
2023-06-21T20:00:52.690Z,2.33
2023-06-21T20:03:21.546Z,2.38
2023-06-21T20:05:50.405Z,2.33
2023-06-21T20:08:18.342Z,2.38
2023-06-21T20:10:47.942Z,2.60
2023-06-21T20:13:15.775Z,2.90
2023-06-21T20:15:44.840Z,2.53
2023-06-21T20:18:12.650Z,2.33
2023-06-21T20:20:44.087Z,2.72
2023-06-21T20:23:14.418Z,2.35
2023-06-21T20:25:42.364Z,2.50
2023-06-21T20:28:12.265Z,2.60
2023-06-21T20:30:40.865Z,2.28
2023-06-21T20:33:11.315Z,3.00
2023-06-21T20:35:39.422Z,2.75
2023-06-21T20:38:07.185Z,3.00
2023-06-21T20:40:34.914Z,2.97
2023-06-21T20:43:02.636Z,3.50
2023-06-21T20:45:32.550Z,3.03
2023-06-21T20:48:00.536Z,3.50
2023-06-21T20:50:28.721Z,2.95
2023-06-21T20:52:56.765Z,2.90
2023-06-21T20:55:27.717Z,3.10
2023-06-21T20:57:56.348Z,3.97
2023-06-21T21:00:24.423Z,3.15
2023-06-21T21:02:53.915Z,3.15
2023-06-21T21:05:22.195Z,3.85
2023-06-21T21:07:50.160Z,4.05
2023-06-21T21:10:18.154Z,3.80
2023-06-21T21:12:45.902Z,3.55
2023-06-21T21:15:14.128Z,3.13
2023-06-21T21:17:43.032Z,3.47
2023-06-21T21:20:12.734Z,3.30
2023-06-21T21:22:40.538Z,3.30
2023-06-21T21:25:08.905Z,3.75
2023-06-21T21:27:36.659Z,3.30
2023-06-21T21:30:04.839Z,3.08
2023-06-21T21:32:33.326Z,3.60
2023-06-21T21:35:01.091Z,2.95
2023-06-21T21:37:30.195Z,3.22
2023-06-21T21:39:58.533Z,3.53
2023-06-21T21:42:26.239Z,3.30
2023-06-21T21:44:54.036Z,2.83
2023-06-21T21:47:22.102Z,2.80
2023-06-21T21:49:50.160Z,3.15
2023-06-21T21:52:17.899Z,3.50
2023-06-21T21:54:47.370Z,3.50
2023-06-21T21:57:15.086Z,3.80
2023-06-21T21:59:42.820Z,3.10
2023-06-21T22:02:11.936Z,2.72
2023-06-21T22:04:42.214Z,3.00
2023-06-21T22:07:10.142Z,2.95
2023-06-21T22:09:37.915Z,3.05
2023-06-21T22:12:08.529Z,3.40
2023-06-21T22:14:38.144Z,3.40
2023-06-21T22:17:06.116Z,2.80
2023-06-21T22:19:33.893Z,3.20
2023-06-21T22:22:02.920Z,3.13
2023-06-21T22:24:33.076Z,3.00
2023-06-21T22:27:01.697Z,3.20
2023-06-21T22:29:31.410Z,2.90
2023-06-21T22:32:00.914Z,3.00
2023-06-21T22:34:29.203Z,3.22
2023-06-21T22:36:57.232Z,3.20
2023-06-21T22:39:25.206Z,3.20
2023-06-21T22:41:52.947Z,3.47
2023-06-21T22:44:20.654Z,3.38
2023-06-21T22:46:50.446Z,3.00
2023-06-21T22:49:18.407Z,3.45
2023-06-21T22:51:48.559Z,3.63
2023-06-21T22:54:16.393Z,3.38
2023-06-21T22:56:44.797Z,3.78
2023-06-21T22:59:12.656Z,3.60
2023-06-21T23:01:40.421Z,3.30
2023-06-21T23:04:09.807Z,3.55
2023-06-21T23:06:39.948Z,3.45
2023-06-21T23:09:08.133Z,3.78
2023-06-21T23:11:36.303Z,3.92
2023-06-21T23:14:04.077Z,4.00
2023-06-21T23:16:34.671Z,3.22
2023-06-21T23:19:02.482Z,3.30
2023-06-21T23:21:41.948Z,3.60
2023-06-21T23:24:09.686Z,3.83
2023-06-21T23:26:37.817Z,3.55
2023-06-21T23:29:09.910Z,3.83
2023-06-21T23:31:38.133Z,3.78
2023-06-21T23:34:06.771Z,3.85
2023-06-21T23:36:35.870Z,3.85
2023-06-21T23:39:04.373Z,3.22
2023-06-21T23:41:32.164Z,3.75
2023-06-21T23:44:00.885Z,4.10
2023-06-21T23:46:30.868Z,3.50
2023-06-21T23:49:00.326Z,4.25
2023-06-21T23:51:30.696Z,3.42
2023-06-21T23:54:00.201Z,3.95
2023-06-21T23:56:29.241Z,3.85
2023-06-21T23:58:57.226Z,4.10
